Toto, Indiana
Current Conditions -  °F | °C
As of 1:55 AM on Sunday 26 Oct 2014 (Local Time) from KOXI Reporting Station
Clear Clear  
Wind Chill: 48°   Ceiling: Unl
Heat Index: 50°   Visibility: 10mi
Dew Point: 32°   Wind: 5mph
Humidity: 50%   Direction: 290°WNW
Pressure: 29.96"   Gusts: NA
Location:  41.2954°N, 86.6039°W
Report Text: KOXI 260655Z AUTO 29004KT 10SM CLR 10/00 A2996 RMK AO1 T00990000
Loading
Personal Weather Stations






























Interactive Weather Map New forecast layout! Learn more

10-Day Weather Forecast

Advertisements
Track Severe Weather on mobile